Time;durP1;ratioP1;P1;durP2;ratioP2;P2;SDS_P1;SDS_P2;PMS_P1;PMS_P2;Temp;Humidity;BMP_temperature;BMP_pressure;BME280_temperature;BME280_humidity;BME280_pressure;Samples;Min_cycle;Max_cycle;Signal;HPM_P1;HPM_P2
2022/04/12 00:01:04;;;;;;;9.80;8.90;;;6.50;75.60;;;;;;5053459;28;20229;-53
2022/04/12 00:03:32;;;;;;;10.70;9.55;;;6.60;76.00;;;;;;5053546;28;20204;-53
2022/04/12 00:05:59;;;;;;;11.55;9.80;;;6.60;76.10;;;;;;5053322;28;20209;-54
2022/04/12 00:08:26;;;;;;;12.60;10.32;;;6.50;76.40;;;;;;5054100;28;20216;-53
2022/04/12 00:10:55;;;;;;;12.50;10.10;;;6.50;76.80;;;;;;5053273;28;20240;-53
2022/04/12 00:13:22;;;;;;;11.02;9.90;;;6.50;76.80;;;;;;5053080;28;20209;-53
2022/04/12 00:15:49;;;;;;;11.98;10.77;;;6.50;77.10;;;;;;5053344;28;20226;-53
2022/04/12 00:21:01;;;;;;;11.23;10.10;;;6.40;78.10;;;;;;5053059;28;20650;-54
2022/04/12 00:23:29;;;;;;;11.52;9.20;;;6.40;78.30;;;;;;5053724;28;20205;-54
2022/04/12 00:25:58;;;;;;;11.38;9.50;;;6.40;78.70;;;;;;5056484;28;20209;-54
2022/04/12 00:28:26;;;;;;;10.07;8.85;;;6.40;78.80;;;;;;5056979;28;20248;-53
2022/04/12 00:30:53;;;;;;;10.38;9.32;;;6.40;78.80;;;;;;5057134;28;20226;-54
2022/04/12 00:33:20;;;;;;;11.05;9.85;;;6.40;78.90;;;;;;5057185;28;20210;-54
2022/04/12 00:35:47;;;;;;;11.27;9.93;;;6.40;79.00;;;;;;5059104;28;20231;-53
2022/04/12 00:38:17;;;;;;;12.10;10.45;;;6.40;79.20;;;;;;5057019;28;20205;-54
2022/04/12 00:40:45;;;;;;;11.50;9.35;;;6.40;79.40;;;;;;5056833;28;20630;-55
2022/04/12 00:43:16;;;;;;;14.95;9.48;;;6.40;79.30;;;;;;5056825;28;20205;-53
2022/04/12 00:45:43;;;;;;;12.98;10.80;;;6.40;79.30;;;;;;5057036;28;20678;-53
2022/04/12 00:48:10;;;;;;;13.88;10.85;;;6.40;79.80;;;;;;5056455;28;20226;-53
2022/04/12 00:50:38;;;;;;;11.40;10.30;;;6.30;80.00;;;;;;5056493;28;20257;-54
2022/04/12 00:53:07;;;;;;;13.40;10.95;;;6.30;80.30;;;;;;5056592;28;20261;-53
2022/04/12 00:55:35;;;;;;;19.40;11.00;;;6.30;80.50;;;;;;5056078;28;20698;-53
2022/04/12 00:58:06;;;;;;;13.35;10.90;;;6.30;80.70;;;;;;5056356;28;20253;-53
2022/04/12 01:00:35;;;;;;;11.98;9.57;;;6.30;80.80;;;;;;5056306;28;20226;-53
2022/04/12 01:03:02;;;;;;;13.65;11.45;;;6.30;80.90;;;;;;5056328;28;20237;-54
2022/04/12 01:05:29;;;;;;;14.40;10.90;;;6.20;81.10;;;;;;5056018;28;20666;-53
2022/04/12 01:07:57;;;;;;;13.75;11.20;;;6.20;81.30;;;;;;5055962;28;20204;-53
2022/04/12 01:10:24;;;;;;;12.18;10.88;;;6.20;81.60;;;;;;5055883;28;20767;-54
2022/04/12 01:12:52;;;;;;;15.88;11.70;;;6.20;81.80;;;;;;5056689;28;20197;-54
2022/04/12 01:15:21;;;;;;;14.48;10.90;;;6.10;82.00;;;;;;5056018;28;20229;-54
2022/04/12 01:17:50;;;;;;;12.88;11.30;;;6.10;82.10;;;;;;5055811;28;20708;-53
2022/04/12 01:20:23;;;;;;;14.32;11.43;;;6.10;82.30;;;;;;5055884;28;20248;-54
2022/04/12 01:22:53;;;;;;;15.25;11.48;;;6.10;82.70;;;;;;5055818;28;20630;-54
2022/04/12 01:25:23;;;;;;;13.32;11.13;;;6.00;83.50;;;;;;5056009;28;20204;-53
2022/04/12 01:27:51;;;;;;;13.30;11.05;;;6.00;83.30;;;;;;5056260;28;20197;-53
2022/04/12 01:30:18;;;;;;;14.40;11.38;;;5.90;83.90;;;;;;5055480;28;20228;-53
2022/04/12 01:32:45;;;;;;;14.50;11.20;;;5.90;84.10;;;;;;5055539;28;20201;-54
2022/04/12 01:35:12;;;;;;;12.90;11.57;;;5.90;84.30;;;;;;5055413;28;20702;-54
2022/04/12 01:37:39;;;;;;;17.90;12.80;;;5.90;84.80;;;;;;5054734;28;20198;-54
2022/04/12 01:40:09;;;;;;;13.30;11.95;;;5.80;84.80;;;;;;5055701;28;20225;-54
2022/04/12 01:42:38;;;;;;;13.65;11.48;;;5.80;85.00;;;;;;5055330;28;20206;-54
2022/04/12 01:45:06;;;;;;;13.63;12.13;;;5.80;85.40;;;;;;5055613;28;20662;-53
2022/04/12 01:47:33;;;;;;;14.48;12.32;;;5.80;85.60;;;;;;5055211;28;20198;-53
2022/04/12 01:50:00;;;;;;;14.05;10.85;;;5.80;85.70;;;;;;5055525;28;20620;-53
2022/04/12 01:52:27;;;;;;;13.30;11.70;;;5.70;85.90;;;;;;5055175;28;20208;-53
2022/04/12 01:54:54;;;;;;;13.38;11.90;;;5.70;86.40;;;;;;5055120;28;20224;-54
2022/04/12 01:57:21;;;;;;;16.20;11.25;;;5.70;86.90;;;;;;5055409;28;20205;-53
2022/04/12 01:59:50;;;;;;;14.00;11.35;;;5.60;87.00;;;;;;5055257;28;20225;-53
2022/04/12 02:02:17;;;;;;;12.25;11.02;;;5.60;87.40;;;;;;5055258;28;20250;-53
2022/04/12 02:04:44;;;;;;;13.95;12.45;;;5.60;87.60;;;;;;5055053;28;20231;-53
2022/04/12 02:07:12;;;;;;;14.30;12.20;;;5.60;87.90;;;;;;5055196;28;20216;-53
2022/04/12 02:09:39;;;;;;;13.63;11.82;;;5.50;88.20;;;;;;5054757;28;20253;-53
2022/04/12 02:12:06;;;;;;;13.77;11.52;;;5.50;88.60;;;;;;5054768;28;20212;-53
2022/04/12 02:14:33;;;;;;;15.43;12.93;;;5.50;88.90;;;;;;5055113;28;20225;-54
2022/04/12 02:17:02;;;;;;;16.13;11.65;;;5.50;89.10;;;;;;5055360;28;20208;-53
2022/04/12 02:19:29;;;;;;;16.15;13.05;;;5.40;89.40;;;;;;5054645;28;20244;-53
2022/04/12 02:21:56;;;;;;;13.38;12.00;;;5.40;89.80;;;;;;5054713;28;20208;-53
2022/04/12 02:24:23;;;;;;;15.98;12.70;;;5.40;90.00;;;;;;5054984;28;20202;-53
2022/04/12 02:26:50;;;;;;;16.27;13.00;;;5.40;90.20;;;;;;5054530;28;20204;-53
2022/04/12 02:29:17;;;;;;;15.27;12.85;;;5.30;90.30;;;;;;5054716;28;20229;-54
2022/04/12 02:31:44;;;;;;;15.15;12.85;;;5.30;90.40;;;;;;5055632;28;20206;-54
2022/04/12 02:34:12;;;;;;;14.95;13.10;;;5.30;90.80;;;;;;5055301;28;20570;-53
2022/04/12 02:36:39;;;;;;;15.82;13.70;;;5.30;90.80;;;;;;5054603;28;20202;-53
2022/04/12 02:39:06;;;;;;;18.48;13.73;;;5.30;90.90;;;;;;5054341;28;20551;-54
2022/04/12 02:41:36;;;;;;;15.80;13.70;;;5.20;91.00;;;;;;5054575;28;20202;-53
2022/04/12 02:44:03;;;;;;;18.52;12.68;;;5.20;91.10;;;;;;5054808;28;20198;-53
2022/04/12 02:46:30;;;;;;;15.18;13.38;;;5.20;91.20;;;;;;5054597;28;20205;-54
2022/04/12 02:48:57;;;;;;;15.57;12.55;;;5.20;91.30;;;;;;5053073;28;20209;-54
2022/04/12 02:51:26;;;;;;;18.42;13.88;;;5.10;91.60;;;;;;5054682;28;20228;-53
2022/04/12 02:53:53;;;;;;;15.93;13.75;;;5.10;91.70;;;;;;5054379;28;20198;-54
2022/04/12 02:56:20;;;;;;;16.23;13.48;;;5.10;91.90;;;;;;5054386;28;20229;-54
2022/04/12 02:58:47;;;;;;;16.83;12.98;;;5.00;92.00;;;;;;5054333;28;20210;-53
2022/04/12 03:01:14;;;;;;;14.48;12.90;;;5.00;92.10;;;;;;5054071;28;20221;-53
2022/04/12 03:03:41;;;;;;;14.40;12.90;;;5.00;92.10;;;;;;5053925;28;20197;-54
2022/04/12 03:06:08;;;;;;;14.93;12.48;;;5.00;92.20;;;;;;5054175;28;20202;-53
2022/04/12 03:08:36;;;;;;;15.45;12.75;;;5.00;92.20;;;;;;5054069;28;20209;-53
2022/04/12 03:11:04;;;;;;;20.42;13.23;;;5.00;92.20;;;;;;5053633;28;20229;-53
2022/04/12 03:13:31;;;;;;;14.70;12.52;;;5.00;92.30;;;;;;5053646;28;20201;-54
2022/04/12 03:15:58;;;;;;;22.20;12.45;;;5.00;92.30;;;;;;5053827;28;20221;-53
2022/04/12 03:18:25;;;;;;;15.02;12.40;;;5.00;92.30;;;;;;5053835;28;20228;-54
2022/04/12 03:20:52;;;;;;;17.35;13.10;;;5.00;92.30;;;;;;5054902;28;20238;-53
2022/04/12 03:23:20;;;;;;;14.60;12.85;;;5.00;92.50;;;;;;5056798;28;20208;-53
2022/04/12 03:25:50;;;;;;;14.05;12.75;;;5.00;92.50;;;;;;5058170;28;20201;-53
2022/04/12 03:28:17;;;;;;;14.63;11.80;;;5.00;92.50;;;;;;5057936;28;20658;-53
2022/04/12 03:30:44;;;;;;;20.20;13.30;;;5.00;92.50;;;;;;5057605;28;20236;-53
2022/04/12 03:33:11;;;;;;;14.98;12.23;;;5.10;92.50;;;;;;5055308;28;20205;-54
2022/04/12 03:35:38;;;;;;;20.70;12.73;;;5.10;92.50;;;;;;5054480;28;20221;-52
2022/04/12 03:38:05;;;;;;;18.67;12.40;;;5.10;92.40;;;;;;5053720;28;20201;-54
2022/04/12 03:40:33;;;;;;;17.60;13.30;;;5.10;92.40;;;;;;5054536;28;20228;-54
2022/04/12 03:43:04;;;;;;;14.88;12.85;;;5.10;92.40;;;;;;5055870;28;20696;-54
2022/04/12 03:45:31;;;;;;;16.88;12.68;;;5.10;92.40;;;;;;5055555;28;20586;-53
2022/04/12 03:47:58;;;;;;;15.80;12.70;;;5.20;92.40;;;;;;5055287;28;20225;-54
2022/04/12 03:50:26;;;;;;;15.10;12.90;;;5.20;92.30;;;;;;5055463;28;20226;-54
2022/04/12 03:52:54;;;;;;;18.27;12.68;;;5.20;92.30;;;;;;5055164;28;20208;-54
2022/04/12 03:55:31;;;;;;;16.42;12.40;;;5.20;92.30;;;;;;5054906;28;20217;-55
2022/04/12 03:57:59;;;;;;;14.40;12.80;;;5.30;92.40;;;;;;5055102;28;20563;-54
2022/04/12 04:00:27;;;;;;;15.57;12.77;;;5.30;92.20;;;;;;5054697;28;20229;-54
2022/04/12 04:02:55;;;;;;;14.10;11.98;;;5.40;92.20;;;;;;5055059;28;20202;-54
2022/04/12 04:05:22;;;;;;;21.20;12.70;;;5.40;92.10;;;;;;5054710;28;20585;-53
2022/04/12 04:09:38;;;;;;;15.25;13.10;;;5.40;91.60;;;;;;5132755;27;20557;-53
2022/04/12 04:12:06;;;;;;;16.38;12.35;;;5.40;91.60;;;;;;5132109;27;20695;-52
2022/04/12 04:14:33;;;;;;;13.00;11.27;;;5.40;91.50;;;;;;5133115;27;20203;-54
2022/04/12 04:17:01;;;;;;;15.38;12.48;;;5.40;91.30;;;;;;5131761;27;20199;-53
2022/04/12 04:19:28;;;;;;;14.55;11.40;;;5.40;91.20;;;;;;5131747;27;20250;-54
2022/04/12 04:21:56;;;;;;;23.02;12.57;;;5.40;91.10;;;;;;5131208;27;20675;-54
2022/04/12 04:24:23;;;;;;;14.98;10.88;;;5.40;91.00;;;;;;5131229;27;20252;-53
2022/04/12 04:26:55;;;;;;;13.40;11.45;;;5.40;91.10;;;;;;5131408;27;20231;-54
2022/04/12 04:29:23;;;;;;;14.05;11.75;;;5.40;91.00;;;;;;5131273;27;20575;-54
2022/04/12 04:31:51;;;;;;;14.27;11.30;;;5.40;90.90;;;;;;5131627;27;20541;-53
2022/04/12 04:34:18;;;;;;;12.55;11.25;;;5.40;90.90;;;;;;5132017;27;20249;-50
2022/04/12 04:36:45;;;;;;;17.42;10.95;;;5.40;90.80;;;;;;5131645;27;20202;-54
2022/04/12 04:39:12;;;;;;;14.48;11.52;;;5.40;90.80;;;;;;5131286;27;20562;-54
2022/04/12 04:41:39;;;;;;;13.52;11.07;;;5.40;90.80;;;;;;5131047;27;20206;-54
2022/04/12 04:44:08;;;;;;;14.13;11.18;;;5.40;90.90;;;;;;5131502;27;20195;-54
2022/04/12 04:46:35;;;;;;;14.60;10.90;;;5.40;90.90;;;;;;5131702;27;20247;-53
2022/04/12 04:49:02;;;;;;;13.75;12.20;;;5.30;90.90;;;;;;5131471;27;20296;-53
2022/04/12 04:51:30;;;;;;;13.25;11.00;;;5.30;90.90;;;;;;5131124;27;20194;-53
2022/04/12 04:53:59;;;;;;;15.95;12.30;;;5.30;91.00;;;;;;5131296;27;20199;-53
2022/04/12 04:56:27;;;;;;;13.73;10.27;;;5.40;91.10;;;;;;5133030;27;20199;-52
2022/04/12 04:58:54;;;;;;;13.65;10.57;;;5.40;91.10;;;;;;5131347;27;20659;-52
2022/04/12 05:01:23;;;;;;;13.45;10.38;;;5.40;91.00;;;;;;5131443;27;20202;-52
2022/04/12 05:03:51;;;;;;;12.73;10.77;;;5.50;90.90;;;;;;5131210;27;20290;-52
2022/04/12 05:06:18;;;;;;;11.85;10.45;;;5.50;90.80;;;;;;5130987;27;20214;-52
2022/04/12 05:08:45;;;;;;;12.93;10.02;;;5.50;91.00;;;;;;5130512;27;20254;-52
2022/04/12 05:11:12;;;;;;;11.20;9.90;;;5.50;90.70;;;;;;5130915;27;20245;-52
2022/04/12 05:13:40;;;;;;;10.75;9.45;;;5.50;90.60;;;;;;5131073;27;20297;-53
2022/04/12 05:16:07;;;;;;;13.60;10.90;;;5.60;90.70;;;;;;5130763;27;20282;-53
2022/04/12 05:18:35;;;;;;;12.38;10.32;;;5.60;90.50;;;;;;5130508;27;20659;-53
2022/04/12 05:21:03;;;;;;;17.92;10.98;;;5.60;90.40;;;;;;5115790;27;20223;-53
2022/04/12 05:23:30;;;;;;;13.57;10.57;;;5.60;90.30;;;;;;5116701;28;20405;-52
2022/04/12 05:25:57;;;;;;;13.00;10.00;;;5.70;90.20;;;;;;5117789;28;20235;-53
2022/04/12 05:28:24;;;;;;;11.93;9.70;;;5.70;90.10;;;;;;5116497;28;20798;-53
2022/04/12 05:30:51;;;;;;;16.85;10.38;;;5.80;89.80;;;;;;5116203;28;20223;-53
2022/04/12 05:33:19;;;;;;;11.25;9.25;;;5.90;89.50;;;;;;5116641;28;20714;-52
2022/04/12 05:35:47;;;;;;;13.13;11.00;;;5.90;88.90;;;;;;5116087;27;20200;-53
2022/04/12 05:38:15;;;;;;;14.23;10.40;;;5.90;88.60;;;;;;5115862;28;20731;-53
2022/04/12 05:40:42;;;;;;;11.93;8.80;;;6.00;88.30;;;;;;5115939;28;20224;-53
2022/04/12 05:43:09;;;;;;;9.52;8.63;;;6.10;87.90;;;;;;5116026;28;20222;-53
2022/04/12 05:45:36;;;;;;;12.38;9.25;;;6.20;87.50;;;;;;5115817;28;20723;-55
2022/04/12 05:48:03;;;;;;;12.77;10.10;;;6.20;87.00;;;;;;5113320;28;20705;-54
2022/04/12 05:50:31;;;;;;;15.63;10.27;;;6.30;86.60;;;;;;5118485;22;20626;-60
2022/04/12 05:52:59;;;;;;;13.07;9.57;;;6.40;86.20;;;;;;5066728;28;20193;-61
2022/04/12 05:55:28;;;;;;;10.70;9.10;;;6.40;85.50;;;;;;5074634;28;20205;-60
2022/04/12 05:57:59;;;;;;;14.23;9.07;;;6.50;85.10;;;;;;5067325;28;20205;-61
2022/04/12 06:00:27;;;;;;;11.95;10.10;;;6.60;84.60;;;;;;5055250;28;20316;-61
2022/04/12 06:02:55;;;;;;;11.90;8.63;;;6.70;83.80;;;;;;5054972;28;20596;-60
2022/04/12 06:05:24;;;;;;;10.70;7.85;;;6.70;83.20;;;;;;5054437;28;20206;-62
2022/04/12 06:07:52;;;;;;;9.52;8.15;;;6.80;82.70;;;;;;5055434;28;20570;-62
2022/04/12 06:10:22;;;;;;;11.07;8.25;;;6.80;82.20;;;;;;5055301;28;20225;-61
2022/04/12 06:12:51;;;;;;;9.68;8.40;;;6.90;81.80;;;;;;5054838;28;20634;-61
2022/04/12 06:15:18;;;;;;;13.05;7.60;;;7.00;81.20;;;;;;5054371;28;20206;-60
2022/04/12 06:17:46;;;;;;;10.23;8.57;;;7.10;80.70;;;;;;5054736;28;20205;-61
2022/04/12 06:20:15;;;;;;;10.27;8.00;;;7.20;80.10;;;;;;5053985;28;20202;-61
2022/04/12 06:22:43;;;;;;;9.40;7.57;;;7.30;79.10;;;;;;5054592;28;20206;-61
2022/04/12 06:25:14;;;;;;;11.68;7.95;;;7.50;78.40;;;;;;5054598;28;20198;-61
2022/04/12 06:27:45;;;;;;;10.43;7.55;;;7.60;77.40;;;;;;5053514;28;20222;-61
2022/04/12 06:30:15;;;;;;;8.88;7.32;;;7.70;76.30;;;;;;5054604;28;20624;-62
2022/04/12 06:32:42;;;;;;;10.90;8.32;;;7.80;75.70;;;;;;5053342;28;20202;-61
2022/04/12 06:35:11;;;;;;;12.43;7.57;;;8.00;75.00;;;;;;5053153;28;20550;-61
2022/04/12 06:37:39;;;;;;;10.93;8.27;;;8.10;74.20;;;;;;5054226;28;20550;-60
2022/04/12 06:40:09;;;;;;;11.95;8.07;;;8.20;73.20;;;;;;5052988;28;20213;-61
2022/04/12 06:42:36;;;;;;;9.63;7.43;;;8.40;72.50;;;;;;5054026;28;20209;-61
2022/04/12 06:45:06;;;;;;;8.23;7.43;;;8.60;71.60;;;;;;5053598;28;20205;-61
2022/04/12 06:47:33;;;;;;;11.25;7.72;;;8.70;70.30;;;;;;5053036;28;20256;-61
2022/04/12 06:50:01;;;;;;;9.70;8.18;;;8.80;69.30;;;;;;5053426;28;20451;-61
2022/04/12 06:52:28;;;;;;;9.95;7.75;;;8.90;68.50;;;;;;5053816;28;20213;-61
2022/04/12 06:54:55;;;;;;;9.65;7.50;;;8.90;68.10;;;;;;5052989;28;20202;-60
2022/04/12 06:57:22;;;;;;;10.73;7.45;;;9.00;67.60;;;;;;5053262;28;20259;-62
2022/04/12 06:59:51;;;;;;;9.68;7.47;;;9.10;67.10;;;;;;5053718;28;20206;-60
2022/04/12 07:02:19;;;;;;;7.57;6.80;;;9.20;66.60;;;;;;5053495;28;20222;-60
2022/04/12 07:04:46;;;;;;;8.65;6.75;;;9.30;66.50;;;;;;5053536;28;20217;-63
2022/04/12 07:07:13;;;;;;;15.07;8.67;;;9.40;66.00;;;;;;5053891;28;20202;-61
2022/04/12 07:09:40;;;;;;;12.50;7.50;;;9.50;65.80;;;;;;5052524;28;21026;-61
2022/04/12 07:12:09;;;;;;;11.13;7.47;;;9.50;65.40;;;;;;5053448;28;20697;-60
2022/04/12 07:14:36;;;;;;;9.80;7.28;;;9.60;65.10;;;;;;5053710;28;20208;-60
2022/04/12 07:17:05;;;;;;;12.40;6.68;;;9.80;64.70;;;;;;5052916;28;20252;-61
2022/04/12 07:19:34;;;;;;;8.43;7.50;;;9.90;64.00;;;;;;5052263;28;20205;-60
2022/04/12 07:22:01;;;;;;;8.13;7.17;;;10.00;62.70;;;;;;5053615;28;20464;-61
2022/04/12 07:24:28;;;;;;;14.60;7.73;;;10.10;62.10;;;;;;5053291;28;20452;-61
2022/04/12 07:26:55;;;;;;;12.67;7.97;;;10.10;61.80;;;;;;5052788;28;20463;-60
2022/04/12 07:29:22;;;;;;;7.63;6.93;;;10.20;61.60;;;;;;5053313;28;20502;-62
2022/04/12 07:31:49;;;;;;;9.37;7.57;;;10.30;61.40;;;;;;5053509;28;20467;-61
2022/04/12 07:34:16;;;;;;;10.33;7.27;;;10.40;61.00;;;;;;5052537;28;20546;-63
2022/04/12 07:36:47;;;;;;;9.40;8.33;;;10.40;60.30;;;;;;5052946;28;20808;-60
2022/04/12 07:39:15;;;;;;;9.17;7.40;;;10.40;60.20;;;;;;5053171;28;20789;-61
2022/04/12 07:41:42;;;;;;;9.70;8.03;;;10.30;60.40;;;;;;5052737;28;20468;-59
2022/04/12 07:44:09;;;;;;;6.93;6.23;;;10.30;60.40;;;;;;5051951;28;20520;-60
2022/04/12 07:46:36;;;;;;;9.00;7.03;;;10.40;60.20;;;;;;5053182;28;20943;-61
2022/04/12 07:49:03;;;;;;;10.33;7.20;;;10.40;60.00;;;;;;5051977;28;20488;-59
2022/04/12 07:51:30;;;;;;;10.70;7.33;;;10.50;59.60;;;;;;5052581;28;21002;-60
2022/04/12 07:54:01;;;;;;;8.60;7.70;;;10.60;59.30;;;;;;5052914;28;20455;-60
2022/04/12 07:56:28;;;;;;;8.63;6.73;;;10.80;59.00;;;;;;5052552;28;20460;-59
2022/04/12 07:58:55;;;;;;;8.90;7.17;;;10.90;58.40;;;;;;5056369;28;20443;-60
2022/04/12 08:01:22;;;;;;;8.17;7.30;;;11.00;58.10;;;;;;5054399;28;20471;-61
2022/04/12 08:03:49;;;;;;;8.27;7.43;;;11.00;57.90;;;;;;5053514;28;20940;-60
2022/04/12 08:06:16;;;;;;;7.90;7.10;;;11.20;57.90;;;;;;5052670;28;20500;-60
2022/04/12 08:08:44;;;;;;;7.63;6.93;;;11.30;57.70;;;;;;5053190;28;20994;-60
2022/04/12 08:11:13;;;;;;;7.83;7.03;;;11.50;57.50;;;;;;5053467;28;20479;-59
2022/04/12 08:13:40;;;;;;;8.90;7.67;;;11.80;57.20;;;;;;5051295;28;20444;-60
2022/04/12 08:16:08;;;;;;;9.33;7.37;;;12.00;56.80;;;;;;5053471;28;20440;-61
2022/04/12 08:18:35;;;;;;;6.53;5.83;;;12.20;56.20;;;;;;5053724;28;20452;-60
2022/04/12 08:21:02;;;;;;;8.80;6.40;;;12.30;55.90;;;;;;5052644;28;20479;-61
2022/04/12 08:23:29;;;;;;;8.57;7.77;;;12.40;55.60;;;;;;5056694;28;20451;-61
2022/04/12 08:25:56;;;;;;;8.87;6.70;;;12.50;55.50;;;;;;5057529;28;20450;-61
2022/04/12 08:28:25;;;;;;;7.67;6.83;;;12.60;55.20;;;;;;5058459;28;20448;-60
2022/04/12 08:30:52;;;;;;;9.37;6.60;;;12.90;55.50;;;;;;5055431;28;20491;-58
2022/04/12 08:33:19;;;;;;;8.13;7.17;;;13.00;54.20;;;;;;5055975;28;20958;-61
2022/04/12 08:35:46;;;;;;;11.80;7.30;;;13.10;53.70;;;;;;5055388;28;20459;-60
2022/04/12 08:38:13;;;;;;;7.50;6.67;;;13.10;53.30;;;;;;5055393;28;20455;-60
2022/04/12 08:40:41;;;;;;;13.80;6.80;;;13.20;53.10;;;;;;5054686;28;20472;-61
2022/04/12 08:43:09;;;;;;;10.00;7.20;;;13.30;52.70;;;;;;5052927;28;20440;-61
2022/04/12 08:45:38;;;;;;;9.50;6.90;;;13.30;52.30;;;;;;5052756;28;20451;-61
2022/04/12 08:48:06;;;;;;;7.80;7.10;;;13.40;52.20;;;;;;5054497;28;20448;-60
2022/04/12 08:50:35;;;;;;;8.77;7.07;;;13.40;51.90;;;;;;5059077;28;20487;-60
2022/04/12 08:53:02;;;;;;;6.73;6.13;;;13.50;51.80;;;;;;5065300;28;20447;-60
2022/04/12 08:55:30;;;;;;;6.73;6.10;;;13.70;51.60;;;;;;5055880;28;20545;-61
2022/04/12 08:57:58;;;;;;;7.67;6.87;;;13.90;51.50;;;;;;5059522;28;20467;-60
2022/04/12 09:00:25;;;;;;;10.10;6.80;;;14.10;51.20;;;;;;5056052;28;20456;-60
2022/04/12 09:02:58;;;;;;;7.20;6.53;;;14.30;50.80;;;;;;5056061;28;20436;-61
2022/04/12 09:05:27;;;;;;;8.43;7.00;;;14.50;50.50;;;;;;5055912;28;20432;-61
2022/04/12 09:07:54;;;;;;;8.07;6.57;;;14.60;50.10;;;;;;5055904;28;20487;-61
2022/04/12 09:10:25;;;;;;;9.30;7.13;;;14.70;50.10;;;;;;5053882;28;20992;-61
2022/04/12 09:12:53;;;;;;;8.53;6.90;;;14.70;49.60;;;;;;5055478;28;20806;-61
2022/04/12 09:15:23;;;;;;;7.30;6.60;;;14.70;49.50;;;;;;5055887;28;20597;-61
2022/04/12 09:17:50;;;;;;;7.00;5.63;;;14.60;49.30;;;;;;5062657;28;20461;-61
2022/04/12 09:20:19;;;;;;;9.13;7.47;;;14.70;49.60;;;;;;5061607;28;20466;-61
2022/04/12 09:22:47;;;;;;;7.17;6.47;;;14.80;49.50;;;;;;5075452;28;20439;-61
2022/04/12 09:25:17;;;;;;;8.43;6.53;;;14.90;49.30;;;;;;5075018;28;20951;-61
2022/04/12 09:27:49;;;;;;;8.65;6.40;;;15.10;49.20;;;;;;5073995;28;20441;-60
2022/04/12 09:30:16;;;;;;;7.47;6.63;;;15.30;48.90;;;;;;5075079;28;20225;-60
2022/04/12 09:32:47;;;;;;;8.73;7.17;;;15.40;48.40;;;;;;5075302;28;20447;-61
2022/04/12 09:35:14;;;;;;;8.23;7.43;;;15.50;48.40;;;;;;5060489;28;20448;-62
2022/04/12 09:37:44;;;;;;;9.40;6.60;;;15.50;48.40;;;;;;5065675;28;20444;-61
2022/04/12 09:40:13;;;;;;;7.50;6.73;;;15.70;48.30;;;;;;5054794;28;20523;-61
2022/04/12 09:42:45;;;;;;;8.00;7.20;;;15.70;47.90;;;;;;5054658;28;21042;-59
2022/04/12 09:45:14;;;;;;;7.90;7.10;;;15.70;47.70;;;;;;5054095;28;20444;-60
2022/04/12 09:47:42;;;;;;;8.03;6.80;;;15.80;47.50;;;;;;5054602;28;20444;-61
2022/04/12 09:50:11;;;;;;;10.87;7.40;;;15.90;47.40;;;;;;5054467;28;20479;-61
2022/04/12 09:52:38;;;;;;;8.47;6.17;;;15.90;46.40;;;;;;5053713;28;20865;-61
2022/04/12 09:55:08;;;;;;;7.97;6.70;;;15.90;46.10;;;;;;5054890;28;20444;-61
2022/04/12 09:57:39;;;;;;;7.30;6.53;;;16.00;46.00;;;;;;5054645;28;20449;-61
2022/04/12 10:00:07;;;;;;;8.20;7.40;;;16.10;45.70;;;;;;5054674;28;20866;-59
2022/04/12 10:02:35;;;;;;;8.47;6.23;;;16.30;45.50;;;;;;5057901;28;20971;-61
2022/04/12 10:05:05;;;;;;;8.10;6.80;;;16.40;45.50;;;;;;5059292;28;20448;-61
2022/04/12 10:07:34;;;;;;;8.10;6.80;;;16.50;45.50;;;;;;5055798;28;20784;-61
2022/04/12 10:10:04;;;;;;;7.73;6.37;;;16.50;45.70;;;;;;5053645;28;20479;-61
2022/04/12 10:12:35;;;;;;;7.77;6.70;;;16.50;45.70;;;;;;5057654;28;20504;-60
2022/04/12 10:15:03;;;;;;;7.57;6.77;;;16.50;45.80;;;;;;5074429;28;20443;-61
2022/04/12 10:17:33;;;;;;;8.53;7.10;;;16.50;46.00;;;;;;5074654;28;20454;-62
2022/04/12 10:20:01;;;;;;;7.00;6.30;;;16.60;46.10;;;;;;5068571;28;20455;-62
2022/04/12 10:22:29;;;;;;;9.70;6.70;;;16.70;45.80;;;;;;5054074;28;20444;-61
2022/04/12 10:24:57;;;;;;;7.83;6.80;;;16.80;45.50;;;;;;5054156;28;20847;-61
2022/04/12 10:27:24;;;;;;;9.30;6.43;;;16.80;45.50;;;;;;5054366;28;20448;-61
2022/04/12 10:30:26;;;;;;;7.57;6.87;;;16.90;45.40;;;;;;5053121;28;20499;-61
2022/04/12 10:32:59;;;;;;;9.17;6.77;;;17.00;44.80;;;;;;5053909;28;20435;-61
2022/04/12 10:35:27;;;;;;;10.10;7.83;;;17.00;44.50;;;;;;5053176;28;20476;-61
2022/04/12 10:37:56;;;;;;;10.60;7.10;;;17.00;44.20;;;;;;5054916;28;20451;-61
2022/04/12 10:40:25;;;;;;;8.25;6.82;;;17.00;44.40;;;;;;5057007;28;20439;-61
2022/04/12 10:42:54;;;;;;;6.67;6.00;;;17.20;44.80;;;;;;5056531;28;20201;-60
2022/04/12 10:45:32;;;;;;;9.00;6.63;;;17.40;44.30;;;;;;5056020;28;20486;-61
2022/04/12 10:48:01;;;;;;;9.60;7.17;;;17.50;43.10;;;;;;5054357;28;20435;-60
2022/04/12 10:50:28;;;;;;;8.73;6.90;;;17.60;42.70;;;;;;5053364;28;20492;-61
2022/04/12 10:52:55;;;;;;;13.80;11.73;;;17.60;42.40;;;;;;5053210;28;20451;-61
2022/04/12 10:55:25;;;;;;;14.93;13.37;;;17.70;42.50;;;;;;5053677;28;20452;-60
2022/04/12 10:57:53;;;;;;;8.57;6.70;;;17.90;42.50;;;;;;5053210;28;20523;-62
2022/04/12 11:00:22;;;;;;;8.27;6.53;;;18.20;42.40;;;;;;5051994;28;20467;-62
2022/04/12 11:02:56;;;;;;;7.07;6.33;;;18.30;42.10;;;;;;5051931;28;20453;-61
2022/04/12 11:05:56;;;;;;;7.47;6.57;;;18.40;41.80;;;;;;5053344;28;20439;-61
2022/04/12 11:08:49;;;;;;;8.90;6.93;;;18.40;41.70;;;;;;5041736;28;20459;-61
2022/04/12 11:11:27;;;;;;;11.70;7.00;;;18.40;41.30;;;;;;5051941;28;20488;-59
2022/04/12 11:13:56;;;;;;;10.60;7.30;;;18.50;41.30;;;;;;5067790;28;20451;-60
2022/04/12 11:16:27;;;;;;;7.07;6.37;;;18.60;41.40;;;;;;5075177;28;20454;-59
2022/04/12 11:18:56;;;;;;;6.93;6.20;;;18.60;41.30;;;;;;5069971;28;20504;-60
2022/04/12 11:21:25;;;;;;;6.30;5.70;;;18.70;41.00;;;;;;5055080;28;20571;-59
2022/04/12 11:23:57;;;;;;;9.00;6.83;;;18.80;40.70;;;;;;5054122;28;20455;-60
2022/04/12 11:26:40;;;;;;;7.20;6.43;;;19.00;40.40;;;;;;5053578;28;20909;-59
2022/04/12 11:29:09;;;;;;;7.63;6.63;;;19.20;39.80;;;;;;5056306;28;20535;-59
2022/04/12 11:31:44;;;;;;;8.40;6.53;;;19.30;39.30;;;;;;5056611;28;20480;-60
2022/04/12 11:34:13;;;;;;;9.18;6.70;;;19.30;39.50;;;;;;5054679;28;20436;-60
2022/04/12 11:36:41;;;;;;;8.97;6.30;;;19.30;38.90;;;;;;5054819;28;20673;-60
2022/04/12 11:39:08;;;;;;;7.87;6.80;;;19.30;39.10;;;;;;5056140;28;20451;-58
2022/04/12 11:41:35;;;;;;;8.43;7.30;;;19.40;39.50;;;;;;5055400;28;20494;-59
2022/04/12 11:44:04;;;;;;;9.93;7.73;;;19.60;39.40;;;;;;5055708;28;20467;-60
2022/04/12 11:46:32;;;;;;;8.67;7.73;;;19.60;39.40;;;;;;5054493;28;20462;-61
2022/04/12 11:49:10;;;;;;;9.67;7.53;;;19.50;39.10;;;;;;5054090;28;20471;-60
2022/04/12 11:51:43;;;;;;;9.10;7.70;;;19.40;39.30;;;;;;5053913;28;20495;-60
2022/04/12 11:54:22;;;;;;;12.87;8.50;;;19.40;39.40;;;;;;5054333;28;20749;-61
2022/04/12 11:57:00;;;;;;;8.60;7.70;;;19.60;39.20;;;;;;5053873;28;20545;-61
2022/04/12 11:59:28;;;;;;;9.17;8.10;;;19.80;39.20;;;;;;5053751;28;20421;-61
2022/04/12 12:01:59;;;;;;;9.70;8.10;;;20.00;39.10;;;;;;5053244;28;20872;-60
2022/04/12 12:04:29;;;;;;;9.87;7.83;;;20.30;38.80;;;;;;5053927;28;20432;-60
2022/04/12 12:07:02;;;;;;;12.37;9.30;;;20.60;38.20;;;;;;5054385;28;20877;-61
2022/04/12 12:09:30;;;;;;;8.77;7.90;;;20.80;37.80;;;;;;5061996;28;20436;-62
2022/04/12 12:12:00;;;;;;;9.73;8.73;;;21.00;38.00;;;;;;5062531;28;20517;-60
2022/04/12 12:14:28;;;;;;;9.70;8.73;;;21.20;38.00;;;;;;5063692;28;20444;-59
2022/04/12 12:17:08;;;;;;;11.13;10.13;;;21.30;37.90;;;;;;5063119;28;20455;-62
2022/04/12 12:19:38;;;;;;;12.50;9.50;;;21.20;38.20;;;;;;5063434;28;20463;-61
2022/04/12 12:22:08;;;;;;;10.10;9.10;;;21.00;38.40;;;;;;5056752;28;20456;-60
2022/04/12 12:24:48;;;;;;;12.97;10.07;;;20.60;38.70;;;;;;5054370;28;20428;-61
2022/04/12 12:27:26;;;;;;;10.73;9.50;;;20.30;39.20;;;;;;5055410;28;20995;-61
2022/04/12 12:29:53;;;;;;;20.83;10.77;;;20.10;39.70;;;;;;5054186;28;20447;-59
2022/04/12 12:32:20;;;;;;;10.10;9.10;;;19.90;40.00;;;;;;5057317;28;20468;-61
2022/04/12 12:34:47;;;;;;;14.00;10.27;;;20.00;40.10;;;;;;5057580;28;20470;-61
2022/04/12 12:37:16;;;;;;;11.83;10.63;;;20.10;40.00;;;;;;5057543;28;20443;-60
2022/04/12 12:39:44;;;;;;;10.97;9.87;;;20.00;39.80;;;;;;5056713;28;20448;-60
2022/04/12 12:42:11;;;;;;;11.83;10.63;;;20.00;39.90;;;;;;5057343;28;20809;-61
2022/04/12 12:44:38;;;;;;;12.27;9.73;;;20.10;40.20;;;;;;5057144;28;20454;-60
2022/04/12 12:47:06;;;;;;;11.53;10.40;;;20.20;40.10;;;;;;5056580;28;20457;-60
2022/04/12 12:49:37;;;;;;;11.00;10.00;;;20.30;39.80;;;;;;5056362;28;20479;-61
2022/04/12 12:52:06;;;;;;;13.17;10.07;;;20.30;39.30;;;;;;5056077;28;20526;-61
2022/04/12 12:54:34;;;;;;;10.60;9.60;;;20.30;39.30;;;;;;5056415;28;20451;-60